^^
Saratoga-Weather Station Historical Data
Daily Summary for February 14, 2018 Units:  Metric    English   Both
Daily Weekly Monthly Yearly Custom
  High: Low: Average:
Temperature: 10.2 °C -2.8 °C 3.3 °C
Dew Point: 2.9 °C -5.9 °C -0.3 °C
Humidity: 88% 60% 78%
Wind Speed: 17.1km/h 0km/h 5.5km/h
Wind Gust: 29.6km/h - -
Wind- - South
Pressure: 1032.4 hPa 1014.1 hPa -
Precipitation: 0 mm    
Historical Graphs
 
 
Tabular Data for February 14, 2018
Time Temperature Dew Point Pressure Wind Wind Speed Wind Gust Humidity Rainfall Rate (Hourly) solar
00:03 -2.8 °C -5.9 °C 1032.1 hPa South 2.6 km/h 5.6 km/h 79% 0 mm 0.0 W/m2
00:08 -2.8 °C -5.9 °C 1032.1 hPa South 1.9 km/h 3.7 km/h 79% 0 mm 0.0 W/m2
00:13 -2.8 °C -5.7 °C 1032.4 hPa South 1.9 km/h 3.7 km/h 80% 0 mm 0.0 W/m2
00:18 -2.7 °C -5.7 °C 1032.1 hPa South 0.8 km/h 1.9 km/h 80% 0 mm 0.0 W/m2
00:23 -2.7 °C -5.7 °C 1032.1 hPa South 2.3 km/h 3.7 km/h 80% 0 mm 0.0 W/m2
00:28 -2.7 °C -5.7 °C 1032.1 hPa South 1 km/h 1.9 km/h 80% 0 mm 0.0 W/m2
00:33 -2.7 °C -5.7 °C 1032.1 hPa South 1.3 km/h 3.7 km/h 80% 0 mm 0.0 W/m2
00:38 -2.7 °C -5.7 °C 1032.1 hPa South 1.8 km/h 3.7 km/h 80% 0 mm 0.0 W/m2
00:43 -2.7 °C -5.7 °C 1031.7 hPa South 1.1 km/h 1.9 km/h 80% 0 mm 0.0 W/m2
00:48 -2.7 °C -5.7 °C 1031.7 hPa South 2.1 km/h 3.7 km/h 80% 0 mm 0.0 W/m2
00:53 -2.7 °C -5.7 °C 1031.7 hPa SSW 2.3 km/h 3.7 km/h 80% 0 mm 0.0 W/m2
00:58 -2.7 °C -5.7 °C 1031.4 hPa SSE 2.7 km/h 3.7 km/h 80% 0 mm 0.0 W/m2
01:03 -2.6 °C -5.6 °C 1031 hPa SSE 4 km/h 5.6 km/h 80% 0 mm 0.0 W/m2
01:08 -2.6 °C -5.6 °C 1031 hPa SSE 2.9 km/h 6.4 km/h 80% 0 mm 0.0 W/m2
01:13 -2.6 °C -5.4 °C 1031 hPa SSE 2.6 km/h 3.7 km/h 81% 0 mm 0.0 W/m2
01:18 -2.5 °C -5.3 °C 1031 hPa SSE 3.4 km/h 5.6 km/h 81% 0 mm 0.0 W/m2
01:23 -2.4 °C -5.3 °C 1030.7 hPa South 3.1 km/h 5.6 km/h 81% 0 mm 0.0 W/m2
01:28 -2.4 °C -5.2 °C 1030.4 hPa SSE 5.1 km/h 7.4 km/h 81% 0 mm 0.0 W/m2
01:33 -2.3 °C -5.2 °C 1030.4 hPa SSE 6.3 km/h 7.4 km/h 81% 0 mm 0.0 W/m2
01:38 -2.3 °C -5.1 °C 1030 hPa South 4.2 km/h 5.6 km/h 81% 0 mm 0.0 W/m2
01:43 -2.3 °C -5.1 °C 1030 hPa South 3.4 km/h 5.6 km/h 81% 0 mm 0.0 W/m2
01:48 -2.2 °C -5 °C 1030 hPa South 4.8 km/h 5.6 km/h 81% 0 mm 0.0 W/m2
01:53 -2.2 °C -5 °C 1030 hPa South 3.2 km/h 5.6 km/h 81% 0 mm 0.0 W/m2
01:58 -2.2 °C -5 °C 1030 hPa SE 4.3 km/h 7.4 km/h 81% 0 mm 0.0 W/m2
02:03 -2.2 °C -5 °C 1029.7 hPa SSE 4 km/h 5.6 km/h 81% 0 mm 0.0 W/m2
02:08 -2.2 °C -5 °C 1029.7 hPa SSE 1.8 km/h 3.7 km/h 81% 0 mm 0.0 W/m2
02:13 -2.2 °C -5 °C 1029.7 hPa SSW 3.1 km/h 5.6 km/h 81% 0 mm 0.0 W/m2
02:18 -2.2 °C -5 °C 1029.7 hPa SW 3.5 km/h 5.6 km/h 81% 0 mm 0.0 W/m2
02:23 -2.2 °C -4.8 °C 1029.3 hPa South 2.9 km/h 5.6 km/h 82% 0 mm 0.0 W/m2
02:28 -2.2 °C -4.8 °C 1029.3 hPa South 2.4 km/h 5.6 km/h 82% 0 mm 0.0 W/m2
02:33 -2.2 °C -4.8 °C 1029.3 hPa South 1.8 km/h 3.7 km/h 82% 0 mm 0.0 W/m2
02:38 -2.1 °C -4.8 °C 1029.3 hPa SW 1.8 km/h 3.7 km/h 82% 0 mm 0.0 W/m2
02:43 -2.1 °C -4.7 °C 1029.7 hPa SW 2.4 km/h 3.7 km/h 82% 0 mm 0.0 W/m2
02:48 -2.1 °C -4.7 °C 1029.3 hPa SW 1.1 km/h 3.7 km/h 82% 0 mm 0.0 W/m2
02:53 -2 °C -4.7 °C 1029 hPa SW 1.3 km/h 1.9 km/h 82% 0 mm 0.0 W/m2
02:58 -1.9 °C -4.6 °C 1029 hPa SW 1.6 km/h 3.7 km/h 82% 0 mm 0.0 W/m2
03:03 -1.9 °C -4.6 °C 1029.3 hPa SW 1 km/h 3.7 km/h 82% 0 mm 0.0 W/m2
03:08 -1.8 °C -4.4 °C 1029 hPa SW 1.9 km/h 1.9 km/h 82% 0 mm 0.0 W/m2
03:14 -1.8 °C -4.3 °C 1029 hPa SW 2.1 km/h 3.7 km/h 83% 0 mm 0.0 W/m2
03:19 -1.8 °C -4.3 °C 1028.7 hPa SSE 2.4 km/h 5.6 km/h 83% 0 mm 0.0 W/m2
03:24 -1.7 °C -4.2 °C 1028.7 hPa SSE 0.3 km/h 1.9 km/h 83% 0 mm 0.0 W/m2
03:29 -1.7 °C -4.2 °C 1028.7 hPa Calm   1.9 km/h 83% 0 mm 0.0 W/m2
03:34 -1.7 °C -4.2 °C 1028.7 hPa SSE 1.3 km/h 1.9 km/h 83% 0 mm 0.0 W/m2
03:39 -1.7 °C -4.2 °C 1028.3 hPa SSE 1.8 km/h 3.7 km/h 83% 0 mm 0.0 W/m2
03:44 -1.6 °C -4.1 °C 1028 hPa SSE 1.9 km/h 3.7 km/h 83% 0 mm 0.0 W/m2
03:49 -1.6 °C -4.1 °C 1028 hPa SSE 2.4 km/h 3.7 km/h 83% 0 mm 0.0 W/m2
03:54 -1.6 °C -4.1 °C 1027.7 hPa SSE 2.7 km/h 3.7 km/h 83% 0 mm 0.0 W/m2
03:59 -1.5 °C -4 °C 1027.7 hPa SSE 2.1 km/h 3.7 km/h 83% 0 mm 0.0 W/m2
04:04 -1.5 °C -4 °C 1027.3 hPa SSE 2.6 km/h 3.7 km/h 83% 0 mm 0.0 W/m2
04:09 -1.4 °C -3.9 °C 1027.3 hPa SSE 2.7 km/h 3.7 km/h 83% 0 mm 0.0 W/m2
04:14 -1.4 °C -3.9 °C 1027 hPa SSE 2.3 km/h 3.7 km/h 83% 0 mm 0.0 W/m2
04:19 -1.4 °C -3.9 °C 1027.3 hPa SSE 1.6 km/h 3.7 km/h 83% 0 mm 0.0 W/m2
04:24 -1.4 °C -3.9 °C 1027.3 hPa SSE 0.3 km/h 1.9 km/h 83% 0 mm 0.0 W/m2
04:29 -1.3 °C -3.6 °C 1027.3 hPa SSE 1.4 km/h 1.9 km/h 84% 0 mm 0.0 W/m2
04:34 -1.2 °C -3.6 °C 1027.3 hPa SSE 1.4 km/h 1.9 km/h 84% 0 mm 0.0 W/m2
04:39 -1.2 °C -3.5 °C 1027.3 hPa SSE 2.4 km/h 3.2 km/h 84% 0 mm 0.0 W/m2
04:44 -1.1 °C -3.6 °C 1027.3 hPa SSW 3.2 km/h 5.6 km/h 83% 0 mm 0.0 W/m2
04:49 -1.1 °C -3.4 °C 1027.3 hPa SSW 3.5 km/h 5.6 km/h 84% 0 mm 0.0 W/m2
04:55 -1.1 °C -3.6 °C 1027 hPa SSE 3.7 km/h 5.6 km/h 83% 0 mm 0.0 W/m2
05:00 -1.1 °C -3.6 °C 1027 hPa South 2.6 km/h 3.7 km/h 83% 0 mm 0.0 W/m2
05:05 -1 °C -3.4 °C 1027 hPa South 1.4 km/h 3.7 km/h 84% 0 mm 0.0 W/m2
05:10 -1 °C -3.4 °C 1027 hPa South 1.4 km/h 3.7 km/h 84% 0 mm 0.0 W/m2
05:15 -1 °C -3.4 °C 1026.6 hPa South 1.9 km/h 3.7 km/h 84% 0 mm 0.0 W/m2
05:20 -0.9 °C -3.3 °C 1026.6 hPa SE 4.5 km/h 5.6 km/h 84% 0 mm 0.0 W/m2
05:25 -0.9 °C -3.3 °C 1026.3 hPa SE 2.6 km/h 3.7 km/h 84% 0 mm 0.0 W/m2
05:30 -0.8 °C -3.2 °C 1026.3 hPa SSE 4.8 km/h 5.6 km/h 84% 0 mm 0.0 W/m2
05:35 -0.8 °C -3.2 °C 1026 hPa SE 6 km/h 8 km/h 84% 0 mm 0.0 W/m2
05:40 -0.7 °C -2.9 °C 1026.3 hPa SSW 5.1 km/h 6.4 km/h 85% 0 mm 0.0 W/m2
05:45 -0.5 °C -2.7 °C 1026.3 hPa SSW 1.6 km/h 3.7 km/h 85% 0 mm 0.0 W/m2
05:50 -0.4 °C -2.6 °C 1026.3 hPa SW 3.5 km/h 5.6 km/h 85% 0 mm 0.0 W/m2
05:55 -0.3 °C -2.6 °C 1026.3 hPa WSW 2.7 km/h 3.7 km/h 85% 0 mm 0.0 W/m2
06:00 -0.3 °C -2.5 °C 1026.6 hPa WSW 4.2 km/h 5.6 km/h 85% 0 mm 0.0 W/m2
06:05 -0.3 °C -2.5 °C 1026.3 hPa WSW 1.9 km/h 3.7 km/h 85% 0 mm 0.0 W/m2
06:10 -0.3 °C -2.5 °C 1026.3 hPa SW 4.2 km/h 5.6 km/h 85% 0 mm 0.0 W/m2
06:15 -0.2 °C -2.4 °C 1026.3 hPa SSE 4.3 km/h 5.6 km/h 85% 0 mm 0.0 W/m2
06:20 -0.2 °C -2.4 °C 1026 hPa SE 5.8 km/h 7.4 km/h 85% 0 mm 0.0 W/m2
06:25 -0.2 °C -2.2 °C 1026 hPa SSE 6.9 km/h 13 km/h 86% 0 mm 0.0 W/m2
06:30 -0.2 °C -2.2 °C 1026 hPa SSE 4.2 km/h 11.1 km/h 86% 0 mm 0.0 W/m2
06:35 -0.1 °C -2.2 °C 1026 hPa SSW 7.4 km/h 9.7 km/h 86% 0 mm 0.0 W/m2
06:40 -0.1 °C -2.1 °C 1026 hPa South 5.1 km/h 7.4 km/h 86% 0 mm 0.0 W/m2
06:45 -0.1 °C -2.1 °C 1025.6 hPa SSE 8.5 km/h 11.1 km/h 86% 0 mm 0.0 W/m2
06:50 0 °C -1.9 °C 1025.6 hPa SE 8 km/h 9.3 km/h 87% 0 mm 0.0 W/m2
06:55 0.1 °C -1.8 °C 1025.6 hPa South 8.5 km/h 14.8 km/h 87% 0 mm 0.0 W/m2
07:00 0.1 °C -1.8 °C 1025.6 hPa SE 4.2 km/h 6.4 km/h 87% 0 mm 0.0 W/m2
07:05 0.1 °C -1.8 °C 1025.6 hPa SSE 8.4 km/h 11.3 km/h 87% 0 mm 0.0 W/m2
07:10 0.2 °C -1.7 °C 1025.3 hPa SE 7.1 km/h 11.1 km/h 87% 0 mm 5.0 W/m2
07:15 0.2 °C -1.7 °C 1025.3 hPa South 5.6 km/h 9.3 km/h 87% 0 mm 9.0 W/m2
07:20 0.2 °C -1.7 °C 1025.3 hPa SW 2.4 km/h 7.4 km/h 87% 0 mm 12.0 W/m2
07:25 0.3 °C -1.6 °C 1025.3 hPa SE 4.7 km/h 7.4 km/h 87% 0 mm 12.0 W/m2
07:30 0.3 °C -1.5 °C 1025.3 hPa SSE 6 km/h 8 km/h 88% 0 mm 16.0 W/m2
07:35 0.3 °C -1.4 °C 1025.3 hPa SE 6.4 km/h 13 km/h 88% 0 mm 16.0 W/m2
07:40 0.4 °C -1.4 °C 1025.3 hPa SSE 3.9 km/h 6.4 km/h 88% 0 mm 16.0 W/m2
07:45 0.4 °C -1.3 °C 1024.9 hPa SE 6.9 km/h 9.3 km/h 88% 0 mm 19.0 W/m2
07:51 0.4 °C -1.3 °C 1024.9 hPa South 5.8 km/h 13 km/h 88% 0 mm 39.0 W/m2
07:56 0.5 °C -1.3 °C 1024.9 hPa SSE 6.6 km/h 11.1 km/h 88% 0 mm 65.0 W/m2
08:01 0.6 °C -1.2 °C 1024.9 hPa SSE 5.6 km/h 11.3 km/h 88% 0 mm 58.0 W/m2
08:06 0.7 °C -1.1 °C 1024.9 hPa SSE 7.6 km/h 13 km/h 88% 0 mm 56.0 W/m2
08:11 0.7 °C -1.1 °C 1024.9 hPa South 2.9 km/h 5.6 km/h 88% 0 mm 42.0 W/m2
08:16 0.8 °C -1 °C 1025.3 hPa SSE 5.1 km/h 9.3 km/h 88% 0 mm 37.0 W/m2
08:21 0.9 °C -1.1 °C 1025.3 hPa South 5.8 km/h 9.3 km/h 87% 0 mm 42.0 W/m2
08:26 0.9 °C -1 °C 1025.3 hPa SSW 4.8 km/h 9.3 km/h 87% 0 mm 51.0 W/m2
08:31 0.9 °C -1 °C 1024.9 hPa SSE 7.9 km/h 14.8 km/h 87% 0 mm 60.0 W/m2
08:36 1.1 °C -0.9 °C 1024.9 hPa South 7.7 km/h 13 km/h 87% 0 mm 69.0 W/m2
08:41 1.1 °C -0.9 °C 1024.9 hPa SSW 7.2 km/h 11.1 km/h 87% 0 mm 56.0 W/m2
08:46 1.1 °C -0.9 °C 1024.6 hPa SSE 6.3 km/h 9.7 km/h 87% 0 mm 58.0 W/m2
08:51 1.1 °C -0.9 °C 1024.6 hPa WSW 5.5 km/h 13 km/h 87% 0 mm 63.0 W/m2
08:56 1.1 °C -0.8 °C 1024.3 hPa SE 8.9 km/h 11.1 km/h 87% 0 mm 69.0 W/m2
09:01 1.2 °C -0.8 °C 1024.3 hPa SE 8.5 km/h 11.3 km/h 87% 0 mm 88.0 W/m2
09:06 1.2 °C -0.7 °C 1024.3 hPa SSE 5.6 km/h 7.4 km/h 87% 0 mm 97.0 W/m2
09:11 1.3 °C -0.6 °C 1024.3 hPa South 7.7 km/h 11.1 km/h 87% 0 mm 98.0 W/m2
09:16 1.4 °C -0.5 °C 1023.9 hPa SSE 9.2 km/h 11.1 km/h 87% 0 mm 116.0 W/m2
09:21 1.5 °C -0.4 °C 1023.9 hPa SSE 9.2 km/h 11.3 km/h 87% 0 mm 118.0 W/m2
09:26 1.6 °C -0.6 °C 1023.9 hPa SSW 6.8 km/h 9.3 km/h 86% 0 mm 105.0 W/m2
09:31 1.7 °C -0.4 °C 1023.9 hPa South 10.6 km/h 13 km/h 86% 0 mm 114.0 W/m2
09:36 1.7 °C -0.4 °C 1023.9 hPa SSE 6.9 km/h 13 km/h 86% 0 mm 114.0 W/m2
09:41 1.8 °C -0.3 °C 1023.6 hPa SE 7.9 km/h 11.1 km/h 86% 0 mm 118.0 W/m2
09:46 1.9 °C -0.2 °C 1023.6 hPa SSE 4.5 km/h 7.4 km/h 86% 0 mm 107.0 W/m2
09:51 2 °C -0.3 °C 1023.6 hPa SSE 8.4 km/h 13 km/h 85% 0 mm 104.0 W/m2
09:56 2.1 °C -0.2 °C 1023.6 hPa SSE 10.9 km/h 16.7 km/h 85% 0 mm 91.0 W/m2
10:01 2.2 °C -0.1 °C 1023.6 hPa SSE 8 km/h 11.1 km/h 85% 0 mm 91.0 W/m2
10:06 2.2 °C -0.2 °C 1023.2 hPa SE 10 km/h 11.1 km/h 84% 0 mm 93.0 W/m2
10:11 2.3 °C -0.2 °C 1023.2 hPa SSE 6.6 km/h 9.3 km/h 84% 0 mm 116.0 W/m2
10:16 2.4 °C -0.1 °C 1023.2 hPa SSW 8 km/h 9.3 km/h 84% 0 mm 104.0 W/m2
10:21 2.5 °C 0.1 °C 1023.2 hPa South 4 km/h 8 km/h 84% 0 mm 109.0 W/m2
10:26 2.6 °C -0.1 °C 1022.9 hPa SSE 8.4 km/h 8.4 km/h 83% 0 mm 120.0 W/m2
10:31 2.6 °C 0 °C 1022.9 hPa South 5.3 km/h 8 km/h 83% 0 mm 137.0 W/m2
10:36 2.7 °C 0.1 °C 1022.9 hPa South 4.5 km/h 11.1 km/h 83% 0 mm 139.0 W/m2
10:41 2.8 °C 0.1 °C 1022.9 hPa SSW 8 km/h 11.3 km/h 82% 0 mm 130.0 W/m2
10:46 2.9 °C 0.2 °C 1022.9 hPa SSW 5.8 km/h 5.8 km/h 82% 0 mm 123.0 W/m2
10:52 3 °C 0.2 °C 1022.6 hPa SSE 5 km/h 11.3 km/h 82% 0 mm 128.0 W/m2
10:57 3.1 °C 0.2 °C 1022.6 hPa South 6.4 km/h 11.1 km/h 81% 0 mm 132.0 W/m2
11:02 3.2 °C 0.2 °C 1022.6 hPa SSE 7.4 km/h 11.1 km/h 81% 0 mm 137.0 W/m2
11:07 3.2 °C 0.1 °C 1022.2 hPa South 8.4 km/h 11.3 km/h 80% 0 mm 141.0 W/m2
11:12 3.2 °C 0.1 °C 1022.2 hPa SE 9.2 km/h 16.7 km/h 80% 0 mm 160.0 W/m2
11:17 3.3 °C 0.2 °C 1021.9 hPa South 8.2 km/h 14.8 km/h 80% 0 mm 171.0 W/m2
11:22 3.4 °C 0.3 °C 1021.9 hPa SSW 4.3 km/h 5.6 km/h 80% 0 mm 192.0 W/m2
11:27 3.6 °C 0.4 °C 1021.9 hPa SSW 8.9 km/h 16.7 km/h 80% 0 mm 213.0 W/m2
11:32 3.6 °C 0.3 °C 1021.6 hPa SW 9.5 km/h 16.7 km/h 79% 0 mm 243.0 W/m2
11:37 3.6 °C 0.3 °C 1021.6 hPa SSW 7.2 km/h 9.3 km/h 79% 0 mm 271.0 W/m2
11:42 3.8 °C 0.4 °C 1021.2 hPa SSW 10.6 km/h 16.7 km/h 79% 0 mm 313.0 W/m2
11:47 4 °C 0.5 °C 1021.2 hPa SSW 6.6 km/h 11.1 km/h 78% 0 mm 510.0 W/m2
11:52 4.3 °C 0.6 °C 1021.2 hPa SSW 12.4 km/h 18.5 km/h 77% 0 mm 301.0 W/m2
11:57 4.2 °C 0.6 °C 1020.9 hPa SSE 8.2 km/h 11.1 km/h 77% 0 mm 341.0 W/m2
12:02 4.6 °C 0.9 °C 1020.9 hPa SW 9.8 km/h 13 km/h 77% 0 mm 373.0 W/m2
12:07 4.7 °C 0.8 °C 1020.9 hPa SW 9.5 km/h 14.8 km/h 76% 0 mm 461.0 W/m2
12:12 4.8 °C 0.8 °C 1020.9 hPa SW 9.5 km/h 11.3 km/h 75% 0 mm 380.0 W/m2
12:17 4.9 °C 0.9 °C 1020.5 hPa SW 10.3 km/h 16.7 km/h 75% 0 mm 501.0 W/m2
12:22 5.3 °C 1.2 °C 1020.5 hPa South 8.7 km/h 11.3 km/h 75% 0 mm 561.0 W/m2
12:27 5.8 °C 1.5 °C 1020.2 hPa West 6.4 km/h 12.9 km/h 74% 0 mm 601.0 W/m2
12:32 6.2 °C 1.5 °C 1020.2 hPa SSE 7.2 km/h 11.3 km/h 72% 0 mm 592.0 W/m2
12:37 6.4 °C 1.6 °C 1019.9 hPa SE 9.5 km/h 16.1 km/h 71% 0 mm 589.0 W/m2
12:42 6.7 °C 1.8 °C 1019.9 hPa SW 8.4 km/h 12.9 km/h 71% 0 mm 589.0 W/m2
12:47 6.6 °C 1.4 °C 1019.9 hPa SSE 7.1 km/h 13 km/h 70% 0 mm 585.0 W/m2
12:52 7 °C 1.9 °C 1019.5 hPa SW 9.3 km/h 13 km/h 70% 0 mm 573.0 W/m2
12:57 7.1 °C 1.8 °C 1019.5 hPa SW 9.3 km/h 14.8 km/h 69% 0 mm 580.0 W/m2
13:02 7.4 °C 1.9 °C 1019.2 hPa SSE 9.5 km/h 14.5 km/h 68% 0 mm 571.0 W/m2
13:07 7.5 °C 1.9 °C 1019.2 hPa SSW 10.6 km/h 14.5 km/h 68% 0 mm 563.0 W/m2
13:12 7.7 °C 2.2 °C 1019.2 hPa SSW 7.7 km/h 12.9 km/h 68% 0 mm 557.0 W/m2
13:17 7.9 °C 2.4 °C 1018.8 hPa South 9.3 km/h 12.9 km/h 68% 0 mm 564.0 W/m2
13:22 8.3 °C 2.3 °C 1018.8 hPa SW 11.6 km/h 16.1 km/h 66% 0 mm 561.0 W/m2
13:27 8.4 °C 2.6 °C 1018.5 hPa WSW 7.9 km/h 14.5 km/h 67% 0 mm 557.0 W/m2
13:32 8.7 °C 2.7 °C 1018.5 hPa SW 7.2 km/h 9.3 km/h 66% 0 mm 547.0 W/m2
13:37 9.1 °C 2.6 °C 1018.5 hPa SSE 8.4 km/h 16.7 km/h 64% 0 mm 499.0 W/m2
13:42 9.2 °C 2.8 °C 1018.5 hPa SSW 10.8 km/h 14.8 km/h 64% 0 mm 420.0 W/m2
13:47 9.3 °C 2.8 °C 1018.5 hPa SW 7.6 km/h 11.1 km/h 64% 0 mm 348.0 W/m2
13:52 9.4 °C 2.7 °C 1018.2 hPa WSW 11.9 km/h 16.7 km/h 63% 0 mm 255.0 W/m2
13:57 9.5 °C 2.8 °C 1018.2 hPa SW 8.5 km/h 14.5 km/h 63% 0 mm 253.0 W/m2
14:02 9.7 °C 2.8 °C 1018.2 hPa SSW 6.8 km/h 11.1 km/h 62% 0 mm 241.0 W/m2
14:07 9.9 °C 2.9 °C 1018.2 hPa SSW 11.1 km/h 16.7 km/h 62% 0 mm 448.0 W/m2
14:13 9.8 °C 2.9 °C 1018.2 hPa SSE 11.3 km/h 16.7 km/h 62% 0 mm 308.0 W/m2
14:18 9.7 °C 2.5 °C 1017.8 hPa SW 9.5 km/h 18.5 km/h 61% 0 mm 346.0 W/m2
14:23 9.8 °C 2.7 °C 1017.8 hPa SW 12.4 km/h 20.4 km/h 61% 0 mm 304.0 W/m2
14:28 9.8 °C 2.7 °C 1017.8 hPa South 13.8 km/h 18.5 km/h 61% 0 mm 265.0 W/m2
14:33 9.9 °C 2.5 °C 1017.8 hPa SSW 16.6 km/h 24.1 km/h 60% 0 mm 251.0 W/m2
14:38 9.9 °C 2.5 °C 1017.5 hPa WSW 17.1 km/h 22.2 km/h 60% 0 mm 202.0 W/m2
14:43 10.1 °C 2.6 °C 1017.5 hPa WSW 12.2 km/h 18.5 km/h 60% 0 mm 91.0 W/m2
14:48 10.1 °C 2.7 °C 1017.5 hPa SW 6 km/h 11.1 km/h 60% 0 mm 174.0 W/m2
14:53 10.2 °C 2.8 °C 1017.2 hPa South 6.3 km/h 11.1 km/h 60% 0 mm 151.0 W/m2
14:58 10.1 °C 2.7 °C 1017.2 hPa WSW 9.5 km/h 11.1 km/h 60% 0 mm 171.0 W/m2
15:03 9.7 °C 2.6 °C 1017.2 hPa SW 7.4 km/h 11.1 km/h 61% 0 mm 174.0 W/m2
15:08 9.7 °C 2.5 °C 1017.2 hPa SW 10.9 km/h 14.8 km/h 61% 0 mm 149.0 W/m2
15:13 9.7 °C 2.5 °C 1017.2 hPa SSW 9.7 km/h 13 km/h 61% 0 mm 127.0 W/m2
15:18 9.6 °C 2.4 °C 1016.8 hPa SSW 10.8 km/h 14.8 km/h 61% 0 mm 125.0 W/m2
15:23 9.4 °C 2.4 °C 1016.8 hPa SSW 11.3 km/h 20.4 km/h 62% 0 mm 121.0 W/m2
15:28 9.3 °C 2.4 °C 1016.8 hPa SW 9.8 km/h 18.5 km/h 62% 0 mm 241.0 W/m2
15:33 9.5 °C 2.6 °C 1016.8 hPa SW 9.7 km/h 18.5 km/h 62% 0 mm 297.0 W/m2
15:38 9.7 °C 2.8 °C 1016.8 hPa WSW 14.3 km/h 20.9 km/h 62% 0 mm 218.0 W/m2
15:43 9.7 °C 2.8 °C 1016.8 hPa SW 6.9 km/h 11.3 km/h 62% 0 mm 239.0 W/m2
15:48 9.7 °C 2.8 °C 1016.8 hPa SW 13.2 km/h 22.2 km/h 62% 0 mm 246.0 W/m2
15:53 9.7 °C 2.7 °C 1016.8 hPa SSE 8.9 km/h 13 km/h 62% 0 mm 241.0 W/m2
15:58 9.7 °C 2.8 °C 1016.5 hPa SW 10.9 km/h 18.5 km/h 62% 0 mm 216.0 W/m2
16:03 9.6 °C 2.7 °C 1016.5 hPa SSW 12.6 km/h 18.5 km/h 62% 0 mm 42.0 W/m2
16:08 9.4 °C 2.7 °C 1016.5 hPa South 8 km/h 13 km/h 63% 0 mm 51.0 W/m2
16:13 9.3 °C 2.7 °C 1016.5 hPa SW 12.6 km/h 29.6 km/h 63% 0 mm 169.0 W/m2
16:18 9.3 °C 2.9 °C 1016.5 hPa SW 10.1 km/h 14.8 km/h 64% 0 mm 153.0 W/m2
16:23 9.3 °C 2.9 °C 1016.5 hPa SW 5.5 km/h 11.1 km/h 64% 0 mm 127.0 W/m2
16:28 9.3 °C 2.9 °C 1016.5 hPa SW 10.6 km/h 17.7 km/h 64% 0 mm 118.0 W/m2
16:33 9.2 °C 2.8 °C 1016.5 hPa South 9.7 km/h 9.7 km/h 64% 0 mm 98.0 W/m2
16:38 9.1 °C 2.6 °C 1016.1 hPa SSW 8.2 km/h 11.1 km/h 64% 0 mm 79.0 W/m2
16:43 8.9 °C 2.7 °C 1016.1 hPa WSW 7.4 km/h 16.7 km/h 65% 0 mm 65.0 W/m2
16:48 8.9 °C 2.7 °C 1016.1 hPa SW 6.9 km/h 8 km/h 65% 0 mm 49.0 W/m2
16:53 8.8 °C 2.6 °C 1016.1 hPa SW 8.2 km/h 8.2 km/h 65% 0 mm 33.0 W/m2
16:58 8.7 °C 2.5 °C 1016.1 hPa SW 4.3 km/h 7.4 km/h 65% 0 mm 16.0 W/m2
17:03 8.6 °C 2.6 °C 1016.1 hPa SSE 7.1 km/h 8 km/h 66% 0 mm 12.0 W/m2
17:08 8.6 °C 2.6 °C 1016.1 hPa WSW 7.7 km/h 8 km/h 66% 0 mm 11.0 W/m2
17:13 8.3 °C 2.3 °C 1016.1 hPa SSW 5.8 km/h 11.1 km/h 66% 0 mm 7.0 W/m2
17:18 8.2 °C 2.4 °C 1016.1 hPa South 3.7 km/h 9.7 km/h 67% 0 mm 0.0 W/m2
17:23 8.1 °C 2.3 °C 1016.1 hPa SSE 7.6 km/h 11.1 km/h 67% 0 mm 0.0 W/m2
17:28 7.9 °C 2.2 °C 1016.1 hPa SW 7.4 km/h 9.7 km/h 67% 0 mm 0.0 W/m2
17:33 7.8 °C 2.1 °C 1016.1 hPa SW 6.4 km/h 6.4 km/h 67% 0 mm 0.0 W/m2
17:38 7.7 °C 2.1 °C 1016.1 hPa SSW 5.8 km/h 7.4 km/h 68% 0 mm 0.0 W/m2
17:43 7.6 °C 2 °C 1016.1 hPa SSW 7.4 km/h 9.7 km/h 68% 0 mm 0.0 W/m2
17:48 7.4 °C 2.1 °C 1016.1 hPa SSW 4.3 km/h 5.6 km/h 69% 0 mm 0.0 W/m2
17:54 7.3 °C 2 °C 1016.1 hPa SSW 5.3 km/h 9.3 km/h 69% 0 mm 0.0 W/m2
17:59 7.2 °C 1.9 °C 1016.1 hPa SW 3.5 km/h 5.6 km/h 69% 0 mm 0.0 W/m2
18:04 7.2 °C 1.8 °C 1016.1 hPa SSW 5.1 km/h 7.4 km/h 69% 0 mm 0.0 W/m2
18:09 7.2 °C 1.8 °C 1016.1 hPa SSE 2.1 km/h 5.6 km/h 69% 0 mm 0.0 W/m2
18:14 7.1 °C 2 °C 1016.1 hPa South 4.5 km/h 5.6 km/h 70% 0 mm 0.0 W/m2
18:19 7.1 °C 1.8 °C 1016.1 hPa South 1.6 km/h 3.7 km/h 69% 0 mm 0.0 W/m2
18:24 7 °C 1.7 °C 1016.1 hPa SSE 3.4 km/h 6.4 km/h 69% 0 mm 0.0 W/m2
18:29 6.9 °C 1.8 °C 1016.1 hPa SE 2.7 km/h 5.6 km/h 70% 0 mm 0.0 W/m2
18:34 6.8 °C 1.7 °C 1016.1 hPa SE 2.4 km/h 3.7 km/h 70% 0 mm 0.0 W/m2
18:39 6.7 °C 1.6 °C 1016.1 hPa SE 3.2 km/h 5.6 km/h 70% 0 mm 0.0 W/m2
18:44 6.7 °C 1.8 °C 1016.1 hPa SE 3.4 km/h 5.6 km/h 71% 0 mm 0.0 W/m2
18:49 6.6 °C 1.7 °C 1016.1 hPa SE 2.9 km/h 3.7 km/h 71% 0 mm 0.0 W/m2
18:54 6.4 °C 1.8 °C 1016.1 hPa SE 1.8 km/h 3.7 km/h 72% 0 mm 0.0 W/m2
18:59 6.3 °C 1.7 °C 1016.1 hPa SE 2.9 km/h 3.7 km/h 72% 0 mm 0.0 W/m2
19:04 6.3 °C 1.6 °C 1016.1 hPa SE 2.9 km/h 3.7 km/h 72% 0 mm 0.0 W/m2
19:09 6.2 °C 1.7 °C 1016.1 hPa SE 3.4 km/h 5.6 km/h 73% 0 mm 0.0 W/m2
19:14 6.1 °C 1.6 °C 1016.1 hPa SE 2.3 km/h 3.7 km/h 73% 0 mm 0.0 W/m2
19:19 6.1 °C 1.8 °C 1016.1 hPa SE 2.7 km/h 4.8 km/h 74% 0 mm 0.0 W/m2
19:24 6 °C 1.7 °C 1016.1 hPa SE 2.4 km/h 3.7 km/h 74% 0 mm 0.0 W/m2
19:29 6 °C 1.7 °C 1015.8 hPa SE 2.6 km/h 5.6 km/h 74% 0 mm 0.0 W/m2
19:34 5.9 °C 1.7 °C 1016.1 hPa SE 1.9 km/h 3.7 km/h 74% 0 mm 0.0 W/m2
19:39 5.9 °C 1.8 °C 1016.1 hPa SE 2.3 km/h 3.7 km/h 75% 0 mm 0.0 W/m2
19:44 5.9 °C 1.8 °C 1015.8 hPa SE 2.7 km/h 5.6 km/h 75% 0 mm 0.0 W/m2
19:49 5.8 °C 1.7 °C 1015.8 hPa SE 4.2 km/h 5.6 km/h 75% 0 mm 0.0 W/m2
19:54 5.8 °C 1.7 °C 1015.8 hPa SE 5.3 km/h 5.6 km/h 75% 0 mm 0.0 W/m2
19:59 5.7 °C 1.6 °C 1015.8 hPa SE 3.1 km/h 5.6 km/h 75% 0 mm 0.0 W/m2
20:04 5.7 °C 1.8 °C 1015.8 hPa SE 4 km/h 5.6 km/h 76% 0 mm 0.0 W/m2
20:09 5.6 °C 1.7 °C 1015.8 hPa ESE 2.9 km/h 5.6 km/h 76% 0 mm 0.0 W/m2
20:14 5.6 °C 1.7 °C 1015.8 hPa SSE 3.2 km/h 5.6 km/h 76% 0 mm 0.0 W/m2
20:19 5.5 °C 1.6 °C 1015.5 hPa SE 2.6 km/h 5.6 km/h 76% 0 mm 0.0 W/m2
20:24 5.4 °C 1.6 °C 1015.8 hPa SE 2.1 km/h 5.6 km/h 76% 0 mm 0.0 W/m2
20:29 5.3 °C 1.4 °C 1015.8 hPa SE 3.1 km/h 3.7 km/h 76% 0 mm 0.0 W/m2
20:34 5.2 °C 1.5 °C 1015.8 hPa SSE 5.5 km/h 5.6 km/h 77% 0 mm 0.0 W/m2
20:39 5.2 °C 1.4 °C 1015.8 hPa South 4.3 km/h 5.6 km/h 77% 0 mm 0.0 W/m2
20:44 5.1 °C 1.6 °C 1015.8 hPa SSE 2.1 km/h 3.7 km/h 78% 0 mm 0.0 W/m2
20:49 5.1 °C 1.6 °C 1015.8 hPa SSE 2.3 km/h 3.7 km/h 78% 0 mm 0.0 W/m2
20:54 5 °C 1.5 °C 1015.8 hPa SE 3.1 km/h 5.6 km/h 78% 0 mm 0.0 W/m2
21:00 4.9 °C 1.4 °C 1015.8 hPa SSE 2.9 km/h 5.6 km/h 78% 0 mm 0.0 W/m2
21:05 4.9 °C 1.4 °C 1015.8 hPa South 5.3 km/h 6.4 km/h 78% 0 mm 0.0 W/m2
21:10 4.8 °C 1.5 °C 1015.8 hPa SE 3.7 km/h 5.6 km/h 79% 0 mm 0.0 W/m2
21:15 4.8 °C 1.4 °C 1015.5 hPa South 3.9 km/h 5.6 km/h 79% 0 mm 0.0 W/m2
21:20 4.8 °C 1.4 °C 1015.5 hPa SSE 3.5 km/h 5.6 km/h 79% 0 mm 0.0 W/m2
21:25 4.8 °C 1.4 °C 1015.5 hPa SE 3.4 km/h 5.6 km/h 79% 0 mm 0.0 W/m2
21:30 4.7 °C 1.3 °C 1015.1 hPa SE 3.9 km/h 5.6 km/h 79% 0 mm 0.0 W/m2
21:35 4.7 °C 1.5 °C 1015.5 hPa SE 4.2 km/h 5.6 km/h 80% 0 mm 0.0 W/m2
21:40 4.6 °C 1.4 °C 1015.5 hPa SSE 4.5 km/h 5.6 km/h 80% 0 mm 0.0 W/m2
21:45 4.5 °C 1.3 °C 1015.5 hPa SSE 4.3 km/h 7.4 km/h 80% 0 mm 0.0 W/m2
21:50 4.5 °C 1.5 °C 1015.5 hPa SSE 4.2 km/h 5.6 km/h 81% 0 mm 0.0 W/m2
21:55 4.4 °C 1.4 °C 1015.1 hPa SE 4.8 km/h 6.4 km/h 81% 0 mm 0.0 W/m2
22:00 4.4 °C 1.4 °C 1015.1 hPa SE 2.6 km/h 3.7 km/h 81% 0 mm 0.0 W/m2
22:05 4.3 °C 1.3 °C 1015.1 hPa SE 2.9 km/h 5.6 km/h 81% 0 mm 0.0 W/m2
22:10 4.3 °C 1.3 °C 1015.1 hPa SE 3.7 km/h 5.6 km/h 81% 0 mm 0.0 W/m2
22:15 4.2 °C 1.4 °C 1014.8 hPa SE 3.2 km/h 5.6 km/h 82% 0 mm 0.0 W/m2
22:20 4.2 °C 1.4 °C 1014.8 hPa SE 4.5 km/h 5.6 km/h 82% 0 mm 0.0 W/m2
22:25 4.1 °C 1.5 °C 1014.8 hPa SSE 4.7 km/h 5.6 km/h 83% 0 mm 0.0 W/m2
22:30 4.1 °C 1.5 °C 1014.8 hPa SE 4 km/h 5.6 km/h 83% 0 mm 0.0 W/m2
22:35 4.1 °C 1.5 °C 1014.8 hPa South 3.5 km/h 5.6 km/h 83% 0 mm 0.0 W/m2
22:40 4.2 °C 1.6 °C 1014.8 hPa SSE 4.5 km/h 6.4 km/h 83% 0 mm 0.0 W/m2
22:45 4.2 °C 1.6 °C 1014.4 hPa SE 5 km/h 5.6 km/h 83% 0 mm 0.0 W/m2
22:50 4.1 °C 1.7 °C 1014.4 hPa SSE 4.3 km/h 5.6 km/h 84% 0 mm 0.0 W/m2
22:55 4.1 °C 1.7 °C 1014.4 hPa SE 3.9 km/h 5.6 km/h 84% 0 mm 0.0 W/m2
23:00 4.1 °C 1.6 °C 1014.4 hPa SSE 3.1 km/h 3.7 km/h 84% 0 mm 0.0 W/m2
23:05 4.1 °C 1.7 °C 1014.4 hPa SSE 3.4 km/h 7.4 km/h 84% 0 mm 0.0 W/m2
23:10 4.1 °C 1.7 °C 1014.4 hPa South 2.6 km/h 5.6 km/h 84% 0 mm 0.0 W/m2
23:16 4.1 °C 1.6 °C 1014.4 hPa South 2.7 km/h 3.7 km/h 84% 0 mm 0.0 W/m2
23:21 4.1 °C 1.6 °C 1014.4 hPa South 2.1 km/h 5.6 km/h 84% 0 mm 0.0 W/m2
23:26 4.1 °C 1.6 °C 1014.4 hPa SSE 4.3 km/h 6.4 km/h 84% 0 mm 0.0 W/m2
23:31 4 °C 1.6 °C 1014.4 hPa SSE 4.2 km/h 5.6 km/h 84% 0 mm 0.0 W/m2
23:36 4 °C 1.7 °C 1014.4 hPa SE 3.5 km/h 5.6 km/h 85% 0 mm 0.0 W/m2
23:41 4 °C 1.7 °C 1014.4 hPa SE 4.8 km/h 5.6 km/h 85% 0 mm 0.0 W/m2
23:46 3.9 °C 1.7 °C 1014.4 hPa SSE 3.4 km/h 5.6 km/h 85% 0 mm 0.0 W/m2
23:51 3.9 °C 1.7 °C 1014.1 hPa SE 1.8 km/h 3.7 km/h 85% 0 mm 0.0 W/m2
23:56 4 °C 1.7 °C 1014.1 hPa SE 2.1 km/h 3.7 km/h 85% 0 mm 0.0 W/m2
Juneau County Weather
Compliments of Weather Underground - 3 mb